Time,TemperatureF,DewpointF,PressureIn,WindDirection,WindDirectionDegrees,WindSpeedMPH,WindSpeedGustMPH,Humidity,HourlyPrecipIn,Conditions,Clouds,dailyrainin,SoftwareType,DateUTC
2013-06-30 00:13:00,76.5,69.0,29.71,North,0,0.0,-999.0,77,-99.99,,,0.00,weatherlink.com 1.10,2013-06-30 05:13:00,
2013-06-30 00:28:00,76.0,69.0,29.71,North,0,0.0,-999.0,79,-99.99,,,0.00,weatherlink.com 1.10,2013-06-30 05:28:00,
2013-06-30 00:43:00,75.6,69.0,29.71,North,0,0.0,-999.0,80,-99.99,,,0.00,weatherlink.com 1.10,2013-06-30 05:43:00,
2013-06-30 00:58:00,75.3,69.0,29.72,North,0,0.0,-999.0,80,-99.99,,,0.00,weatherlink.com 1.10,2013-06-30 05:58:00,
2013-06-30 01:13:00,74.9,69.0,29.71,North,0,0.0,-999.0,81,-99.99,,,0.00,weatherlink.com 1.10,2013-06-30 06:13:00,
2013-06-30 01:28:00,74.6,68.0,29.71,North,0,0.0,-999.0,81,-99.99,,,0.00,weatherlink.com 1.10,2013-06-30 06:28:00,
2013-06-30 01:44:00,74.2,68.0,29.71,North,0,0.0,-999.0,82,-99.99,,,0.00,weatherlink.com 1.10,2013-06-30 06:44:00,
2013-06-30 01:58:00,73.7,68.0,29.71,North,0,0.0,-999.0,82,-99.99,,,0.00,weatherlink.com 1.10,2013-06-30 06:58:00,
2013-06-30 02:13:00,73.3,68.0,29.71,North,0,0.0,-999.0,82,-99.99,,,0.00,weatherlink.com 1.10,2013-06-30 07:13:00,
2013-06-30 02:28:00,72.8,67.0,29.71,North,0,0.0,-999.0,83,-99.99,,,0.00,weatherlink.com 1.10,2013-06-30 07:28:00,
2013-06-30 02:43:00,72.5,67.0,29.71,North,0,0.0,-999.0,83,-99.99,,,0.00,weatherlink.com 1.10,2013-06-30 07:43:00,
2013-06-30 02:58:00,72.1,67.0,29.70,North,0,0.0,-999.0,83,-99.99,,,0.00,weatherlink.com 1.10,2013-06-30 07:58:00,
2013-06-30 03:13:00,71.6,66.0,29.70,North,0,0.0,-999.0,83,-99.99,,,0.00,weatherlink.com 1.10,2013-06-30 08:13:00,
2013-06-30 03:28:00,71.3,66.0,29.70,North,0,0.0,-999.0,84,-99.99,,,0.00,weatherlink.com 1.10,2013-06-30 08:28:00,
2013-06-30 03:43:00,70.9,66.0,29.70,North,0,0.0,-999.0,84,-99.99,,,0.00,weatherlink.com 1.10,2013-06-30 08:43:00,
2013-06-30 03:58:00,70.6,66.0,29.70,North,0,0.0,-999.0,85,-99.99,,,0.00,weatherlink.com 1.10,2013-06-30 08:58:00,
2013-06-30 04:13:00,70.1,65.0,29.70,North,0,0.0,-999.0,85,-99.99,,,0.00,weatherlink.com 1.10,2013-06-30 09:13:00,
2013-06-30 04:28:00,69.8,66.0,29.70,North,0,0.0,-999.0,86,-99.99,,,0.00,weatherlink.com 1.10,2013-06-30 09:28:00,
2013-06-30 04:43:00,69.4,65.0,29.70,North,0,0.0,-999.0,86,-99.99,,,0.00,weatherlink.com 1.10,2013-06-30 09:43:00,
2013-06-30 04:58:00,69.1,65.0,29.70,North,0,0.0,-999.0,86,-99.99,,,0.00,weatherlink.com 1.10,2013-06-30 09:58:00,
2013-06-30 05:13:00,68.8,65.0,29.71,North,0,0.0,-999.0,87,-99.99,,,0.00,weatherlink.com 1.10,2013-06-30 10:13:00,
2013-06-30 05:28:00,68.6,65.0,29.71,North,0,0.0,-999.0,87,-99.99,,,0.00,weatherlink.com 1.10,2013-06-30 10:28:00,
2013-06-30 05:43:00,68.3,64.0,29.72,North,0,0.0,-999.0,87,-99.99,,,0.00,weatherlink.com 1.10,2013-06-30 10:43:00,
2013-06-30 05:58:00,67.9,64.0,29.72,North,0,0.0,-999.0,88,-99.99,,,0.00,weatherlink.com 1.10,2013-06-30 10:58:00,
2013-06-30 06:13:00,67.8,64.0,29.73,North,0,0.0,-999.0,88,-99.99,,,0.00,weatherlink.com 1.10,2013-06-30 11:13:00,
2013-06-30 06:28:00,67.4,64.0,29.72,North,0,0.0,-999.0,88,-99.99,,,0.00,weatherlink.com 1.10,2013-06-30 11:28:00,
2013-06-30 06:43:00,67.4,64.0,29.73,North,0,0.0,-999.0,89,-99.99,,,0.00,weatherlink.com 1.10,2013-06-30 11:43:00,
2013-06-30 06:58:00,67.6,65.0,29.72,North,0,0.0,-999.0,90,-99.99,,,0.00,weatherlink.com 1.10,2013-06-30 11:58:00,
2013-06-30 07:13:00,68.3,66.0,29.73,North,0,0.0,-999.0,91,-99.99,,,0.00,weatherlink.com 1.10,2013-06-30 12:13:00,
2013-06-30 07:28:00,68.8,66.0,29.73,North,0,0.0,-999.0,91,-99.99,,,0.00,weatherlink.com 1.10,2013-06-30 12:28:00,
2013-06-30 07:43:00,69.3,67.0,29.73,North,0,0.0,-999.0,91,-99.99,,,0.00,weatherlink.com 1.10,2013-06-30 12:43:00,
2013-06-30 07:58:00,70.4,67.0,29.73,North,0,0.0,-999.0,90,-99.99,,,0.00,weatherlink.com 1.10,2013-06-30 12:58:00,
2013-06-30 08:13:00,72.0,68.0,29.74,North,356,0.0,-999.0,88,-99.99,,,0.00,weatherlink.com 1.10,2013-06-30 13:13:00,
2013-06-30 08:28:00,73.7,69.0,29.74,NNW,344,0.0,-999.0,84,-99.99,,,0.00,weatherlink.com 1.10,2013-06-30 13:28:00,
2013-06-30 08:43:00,75.6,68.0,29.74,North,353,2.0,-999.0,78,-99.99,,,0.00,weatherlink.com 1.10,2013-06-30 13:43:00,
2013-06-30 08:58:00,77.6,67.0,29.74,North,350,0.0,-999.0,70,-99.99,,,0.00,weatherlink.com 1.10,2013-06-30 13:58:00,
2013-06-30 09:13:00,79.6,67.0,29.74,NW,320,0.0,-999.0,65,-99.99,,,0.00,weatherlink.com 1.10,2013-06-30 14:13:00,
2013-06-30 09:28:00,81.6,67.0,29.75,WSW,248,0.0,-999.0,62,-99.99,,,0.00,weatherlink.com 1.10,2013-06-30 14:28:00,
2013-06-30 09:43:00,83.0,67.0,29.74,NNW,346,0.0,-999.0,59,-99.99,,,0.00,weatherlink.com 1.10,2013-06-30 14:43:00,
2013-06-30 09:58:00,84.1,67.0,29.74,NNW,346,0.0,-999.0,57,-99.99,,,0.00,weatherlink.com 1.10,2013-06-30 14:58:00,
2013-06-30 10:13:00,84.9,67.0,29.74,NNE,21,2.0,-999.0,55,-99.99,,,0.00,weatherlink.com 1.10,2013-06-30 15:13:00,
2013-06-30 10:28:00,84.7,66.0,29.74,NNW,339,0.0,-999.0,53,-99.99,,,0.00,weatherlink.com 1.10,2013-06-30 15:28:00,
2013-06-30 10:43:00,85.5,66.0,29.74,North,0,0.0,-999.0,53,-99.99,,,0.00,weatherlink.com 1.10,2013-06-30 15:43:00,
2013-06-30 10:58:00,85.5,66.0,29.74,NNE,17,1.0,-999.0,52,-99.99,,,0.00,weatherlink.com 1.10,2013-06-30 15:58:00,
2013-06-30 11:13:00,86.5,68.0,29.74,WNW,295,0.0,-999.0,54,-99.99,,,0.00,weatherlink.com 1.10,2013-06-30 16:13:00,
2013-06-30 11:28:00,87.0,66.0,29.75,NNW,340,0.0,-999.0,50,-99.99,,,0.00,weatherlink.com 1.10,2013-06-30 16:28:00,
2013-06-30 11:43:00,87.0,65.0,29.75,North,357,1.0,-999.0,48,-99.99,,,0.00,weatherlink.com 1.10,2013-06-30 16:43:00,
2013-06-30 11:58:00,87.6,66.0,29.75,North,7,0.0,-999.0,49,-99.99,,,0.00,weatherlink.com 1.10,2013-06-30 16:58:00,
2013-06-30 12:13:00,88.0,66.0,29.75,NNE,21,2.0,-999.0,49,-99.99,,,0.00,weatherlink.com 1.10,2013-06-30 17:13:00,
2013-06-30 12:28:00,89.0,66.0,29.74,North,352,0.0,-999.0,46,-99.99,,,0.00,weatherlink.com 1.10,2013-06-30 17:28:00,
2013-06-30 12:43:00,88.6,63.0,29.75,NW,305,0.0,-999.0,42,-99.99,,,0.00,weatherlink.com 1.10,2013-06-30 17:43:00,
2013-06-30 12:58:00,88.8,64.0,29.74,NNW,340,0.0,-999.0,44,-99.99,,,0.00,weatherlink.com 1.10,2013-06-30 17:58:00,
2013-06-30 13:13:00,89.5,63.0,29.74,WNW,292,4.0,-999.0,41,-99.99,,,0.00,weatherlink.com 1.10,2013-06-30 18:13:00,
2013-06-30 13:28:00,89.3,62.0,29.73,NW,306,2.0,-999.0,40,-99.99,,,0.00,weatherlink.com 1.10,2013-06-30 18:28:00,
2013-06-30 13:43:00,89.7,63.0,29.73,WNW,302,1.0,-999.0,41,-99.99,,,0.00,weatherlink.com 1.10,2013-06-30 18:43:00,
2013-06-30 13:58:00,89.9,62.0,29.72,West,271,0.0,-999.0,39,-99.99,,,0.00,weatherlink.com 1.10,2013-06-30 18:58:00,
2013-06-30 14:13:00,90.1,63.0,29.72,North,352,0.0,-999.0,41,-99.99,,,0.00,weatherlink.com 1.10,2013-06-30 19:13:00,
2013-06-30 14:28:00,89.7,64.0,29.72,NW,326,4.0,-999.0,42,-99.99,,,0.00,weatherlink.com 1.10,2013-06-30 19:28:00,
2013-06-30 14:43:00,90.5,64.0,29.72,NW,316,3.0,-999.0,41,-99.99,,,0.00,weatherlink.com 1.10,2013-06-30 19:43:00,
2013-06-30 14:58:00,90.3,64.0,29.72,West,277,3.0,-999.0,42,-99.99,,,0.00,weatherlink.com 1.10,2013-06-30 19:58:00,
2013-06-30 15:13:00,90.5,64.0,29.73,NW,313,1.0,-999.0,42,-99.99,,,0.00,weatherlink.com 1.10,2013-06-30 20:13:00,
2013-06-30 15:28:00,90.5,64.0,29.73,NW,325,2.0,-999.0,41,-99.99,,,0.00,weatherlink.com 1.10,2013-06-30 20:28:00,
2013-06-30 15:43:00,90.5,65.0,29.73,North,350,6.0,-999.0,43,-99.99,,,0.00,weatherlink.com 1.10,2013-06-30 20:43:00,
2013-06-30 15:58:00,90.1,65.0,29.73,NNW,333,6.0,-999.0,43,-99.99,,,0.00,weatherlink.com 1.10,2013-06-30 20:58:00,
2013-06-30 16:13:00,89.9,63.0,29.72,North,353,1.0,-999.0,41,-99.99,,,0.00,weatherlink.com 1.10,2013-06-30 21:13:00,
2013-06-30 16:28:00,89.7,62.0,29.72,NW,312,2.0,-999.0,40,-99.99,,,0.00,weatherlink.com 1.10,2013-06-30 21:28:00,
2013-06-30 16:43:00,90.3,64.0,29.72,North,0,4.0,-999.0,41,-99.99,,,0.00,weatherlink.com 1.10,2013-06-30 21:43:00,
2013-06-30 16:58:00,90.3,63.0,29.71,NNW,332,0.0,-999.0,40,-99.99,,,0.00,weatherlink.com 1.10,2013-06-30 21:58:00,
2013-06-30 17:13:00,89.9,64.0,29.72,NW,318,1.0,-999.0,42,-99.99,,,0.00,weatherlink.com 1.10,2013-06-30 22:13:00,
2013-06-30 17:28:00,89.0,61.0,29.71,NNW,330,2.0,-999.0,39,-99.99,,,0.00,weatherlink.com 1.10,2013-06-30 22:28:00,
2013-06-30 17:43:00,89.3,63.0,29.71,North,1,9.0,-999.0,41,-99.99,,,0.00,weatherlink.com 1.10,2013-06-30 22:43:00,
2013-06-30 17:58:00,88.8,63.0,29.71,NW,306,0.0,-999.0,42,-99.99,,,0.00,weatherlink.com 1.10,2013-06-30 22:58:00,
2013-06-30 18:13:00,87.8,64.0,29.71,NNW,336,0.0,-999.0,45,-99.99,,,0.00,weatherlink.com 1.10,2013-06-30 23:13:00,
2013-06-30 18:28:00,87.2,63.0,29.71,North,4,3.0,-999.0,45,-99.99,,,0.00,weatherlink.com 1.10,2013-06-30 23:28:00,
2013-06-30 18:43:00,86.7,63.0,29.70,North,353,3.0,-999.0,45,-99.99,,,0.00,weatherlink.com 1.10,2013-06-30 23:43:00,
2013-06-30 18:58:00,85.9,63.0,29.70,NW,313,2.0,-999.0,47,-99.99,,,0.00,weatherlink.com 1.10,2013-06-30 23:58:00,
2013-06-30 19:13:00,85.7,63.0,29.71,NNW,337,1.0,-999.0,47,-99.99,,,0.00,weatherlink.com 1.10,2013-07-01 00:13:00,
2013-06-30 19:28:00,85.3,64.0,29.71,NW,316,4.0,-999.0,49,-99.99,,,0.00,weatherlink.com 1.10,2013-07-01 00:28:00,
2013-06-30 19:43:00,84.9,64.0,29.72,NNW,330,2.0,-999.0,50,-99.99,,,0.00,weatherlink.com 1.10,2013-07-01 00:43:00,
2013-06-30 19:58:00,84.1,63.0,29.72,NNW,335,0.0,-999.0,50,-99.99,,,0.00,weatherlink.com 1.10,2013-07-01 00:58:00,
2013-06-30 20:13:00,83.4,64.0,29.73,NNW,335,0.0,-999.0,52,-99.99,,,0.00,weatherlink.com 1.10,2013-07-01 01:13:00,
2013-06-30 20:28:00,82.6,64.0,29.73,NNW,335,0.0,-999.0,53,-99.99,,,0.00,weatherlink.com 1.10,2013-07-01 01:28:00,
2013-06-30 20:43:00,81.8,63.0,29.73,NNW,335,0.0,-999.0,54,-99.99,,,0.00,weatherlink.com 1.10,2013-07-01 01:43:00,
2013-06-30 20:58:00,80.9,63.0,29.74,NNW,335,0.0,-999.0,55,-99.99,,,0.00,weatherlink.com 1.10,2013-07-01 01:58:00,
2013-06-30 21:13:00,79.9,63.0,29.74,NNW,335,0.0,-999.0,57,-99.99,,,0.00,weatherlink.com 1.10,2013-07-01 02:13:00,
2013-06-30 21:28:00,79.2,64.0,29.75,NNW,335,0.0,-999.0,59,-99.99,,,0.00,weatherlink.com 1.10,2013-07-01 02:28:00,
2013-06-30 21:43:00,78.5,64.0,29.75,NNW,335,0.0,-999.0,61,-99.99,,,0.00,weatherlink.com 1.10,2013-07-01 02:43:00,
2013-06-30 21:58:00,77.9,64.0,29.76,NNW,336,0.0,-999.0,62,-99.99,,,0.00,weatherlink.com 1.10,2013-07-01 02:58:00,
2013-06-30 22:13:00,77.6,64.0,29.77,NNW,336,0.0,-999.0,64,-99.99,,,0.00,weatherlink.com 1.10,2013-07-01 03:13:00,
2013-06-30 22:28:00,77.2,65.0,29.77,NNW,337,0.0,-999.0,65,-99.99,,,0.00,weatherlink.com 1.10,2013-07-01 03:28:00,
2013-06-30 22:43:00,76.7,64.0,29.78,NNW,337,0.0,-999.0,66,-99.99,,,0.00,weatherlink.com 1.10,2013-07-01 03:43:00,
2013-06-30 22:58:00,76.3,65.0,29.77,NNW,336,0.0,-999.0,67,-99.99,,,0.00,weatherlink.com 1.10,2013-07-01 03:58:00,
2013-06-30 23:13:00,76.0,65.0,29.77,NNW,337,0.0,-999.0,68,-99.99,,,0.00,weatherlink.com 1.10,2013-07-01 04:13:00,
2013-06-30 23:28:00,75.6,65.0,29.78,NNW,336,0.0,-999.0,69,-99.99,,,0.00,weatherlink.com 1.10,2013-07-01 04:28:00,
2013-06-30 23:43:00,75.4,65.0,29.78,NNW,336,0.0,-999.0,70,-99.99,,,0.00,weatherlink.com 1.10,2013-07-01 04:43:00,
2013-06-30 23:58:00,75.1,65.0,29.78,NNW,337,0.0,-999.0,70,-99.99,,,0.00,weatherlink.com 1.10,2013-07-01 04:58:00,